»·PEaware :: N4D KSNA-KSMX

N4D :: KSNA-KSMX

FLIGHT INFORMATION

Flight Status: Arrived
Operator: Privately registered:
United States
More flights under this callsign
Pilot: Alec D. (17934)
Aircraft: BEECH AIRCRAFT SUPER KING AIR COMMUTER
(BE20)
More flights by this aircraft type
Origin: KSNA John Wayne-Orange Co
United States
Destination: KSMX Santa Maria Pub/Capt Hancock
United States
More flights between these airports :: More routes between these airports
Route: +CHANL3 RZS
File this flight plan on PilotEdge
Remarks:
Altitude:
(Current/Filed)
16,000ft
Speed:
(Current/Filed)
275kts
Departed: 24-Sep-18 08:51 AM
Arrived: 24-Sep-18 09:51 AM
Distance/Time
Traveled:
148nm/1:00
Distance/Time
To Go:
Arrived

Flight Plot

Page will automatically refresh every two minutes.

Flight plan parsing failed; only flown route is shown


Map Options




Map Legend


Flown Route
Filed Route
Departure Airport
Arrival Airport
Navaid (VOR, NDB)
Fix

Horizontal Profiles

Position Reports

Time Latitude Longitude Heading Altitude Ground
Speed
24-Sep-18 08:26 33.666743 -117.871785 316 59ft 0kts
24-Sep-18 08:27 33.666743 -117.871785 316 59ft 0kts
24-Sep-18 08:28 33.666743 -117.871785 316 59ft 0kts
24-Sep-18 08:29 33.666743 -117.871785 316 59ft 0kts
24-Sep-18 08:30 33.666743 -117.871785 316 59ft 0kts
24-Sep-18 08:31 33.666743 -117.871785 316 59ft 0kts
24-Sep-18 08:32 33.666743 -117.871785 316 59ft 0kts
24-Sep-18 08:33 33.666743 -117.871785 316 59ft 0kts
24-Sep-18 08:34 33.666743 -117.871785 316 59ft 0kts
24-Sep-18 08:35 33.666743 -117.871785 316 59ft 0kts
24-Sep-18 08:36 33.666743 -117.871785 316 59ft 0kts
24-Sep-18 08:37 33.666743 -117.871785 316 59ft 0kts
24-Sep-18 08:38 33.666743 -117.871785 316 59ft 0kts
24-Sep-18 08:39 33.666743 -117.871785 316 59ft 0kts
24-Sep-18 08:40 33.666743 -117.871785 316 59ft 0kts
24-Sep-18 08:41 33.666743 -117.871785 316 59ft 0kts
24-Sep-18 08:42 33.666743 -117.871785 316 59ft 0kts
24-Sep-18 08:43 33.666743 -117.871785 316 59ft 0kts
24-Sep-18 08:44 33.667002 -117.872184 304 60ft 0kts
24-Sep-18 08:45 33.667704 -117.873304 296 60ft 12kts
24-Sep-18 08:46 33.670978 -117.873336 28 60ft 18kts
24-Sep-18 08:47 33.673939 -117.871458 27 60ft 8kts
24-Sep-18 08:48 33.677107 -117.869451 26 60ft 10kts
24-Sep-18 08:49 33.679743 -117.867897 16 59ft 10kts
24-Sep-18 08:50 33.681283 -117.866581 102 60ft 0kts
24-Sep-18 08:51 33.681283 -117.866581 102 60ft 0kts
24-Sep-18 08:52 33.681031 -117.865754 128 60ft 12kts
24-Sep-18 08:53 33.666626 -117.874739 207 275ft 106kts
24-Sep-18 08:54 33.634243 -117.892186 189 1580ft 146kts
24-Sep-18 08:55 33.591996 -117.902465 190 3248ft 165kts
24-Sep-18 08:56 33.550234 -117.925566 214 4939ft 171kts
24-Sep-18 08:57 33.525123 -117.973181 249 6639ft 177kts
24-Sep-18 08:58 33.507749 -118.028814 247 8361ft 180kts
24-Sep-18 08:59 33.489160 -118.084835 247 9921ft 184kts
24-Sep-18 09:00 33.470138 -118.141823 247 11467ft 187kts
24-Sep-18 09:01 33.451098 -118.198866 247 12910ft 191kts
24-Sep-18 09:02 33.430508 -118.263394 260 12948ft 226kts
24-Sep-18 09:03 33.456003 -118.331762 311 13927ft 228kts
24-Sep-18 09:04 33.502355 -118.378634 316 15711ft 212kts
24-Sep-18 09:05 33.548469 -118.427944 315 16020ft 239kts
24-Sep-18 09:06 33.599701 -118.483500 315 16013ft 259kts
24-Sep-18 09:07 33.653981 -118.542480 315 16010ft 269kts
24-Sep-18 09:08 33.709806 -118.603259 315 16007ft 274kts
24-Sep-18 09:09 33.766352 -118.664958 315 15997ft 276kts
24-Sep-18 09:10 33.823100 -118.727005 315 15987ft 277kts
24-Sep-18 09:11 33.875069 -118.783939 315 15981ft 277kts
24-Sep-18 09:12 33.931785 -118.846145 315 15983ft 277kts
24-Sep-18 09:13 33.988079 -118.908055 315 15986ft 274kts
24-Sep-18 09:14 34.043755 -118.969450 315 15988ft 269kts
24-Sep-18 09:15 34.098356 -119.029803 316 15998ft 265kts
24-Sep-18 09:16 34.143596 -119.097818 302 15963ft 262kts
24-Sep-18 09:17 34.183403 -119.171023 303 15993ft 261kts
24-Sep-18 09:18 34.223347 -119.243679 303 16004ft 260kts
24-Sep-18 09:19 34.263236 -119.316407 303 15998ft 260kts
24-Sep-18 09:20 34.303170 -119.389347 303 15998ft 260kts
24-Sep-18 09:21 34.342783 -119.461859 303 15984ft 260kts
24-Sep-18 09:22 34.382554 -119.534836 303 15981ft 260kts
24-Sep-18 09:23 34.422676 -119.608649 303 15169ft 269kts
24-Sep-18 09:24 34.464191 -119.685211 303 13779ft 276kts
24-Sep-18 09:25 34.506286 -119.762936 303 12371ft 275kts
24-Sep-18 09:26 34.549223 -119.838415 305 10973ft 273kts
24-Sep-18 09:27 34.591840 -119.912688 304 9568ft 265kts
24-Sep-18 09:28 34.633074 -119.985332 304 8162ft 259kts
24-Sep-18 09:29 34.673254 -120.056632 304 6759ft 254kts
24-Sep-18 09:30 34.712361 -120.125351 304 5989ft 240kts
24-Sep-18 09:31 34.755110 -120.184143 314 6012ft 229kts
24-Sep-18 09:32 34.800267 -120.237495 314 6004ft 226kts
24-Sep-18 09:33 34.845142 -120.289839 314 5999ft 221kts
24-Sep-18 09:34 34.889056 -120.340784 314 5998ft 217kts
24-Sep-18 09:35 34.932551 -120.391242 314 5999ft 216kts
24-Sep-18 09:36 34.975946 -120.441704 314 5938ft 216kts
24-Sep-18 09:37 35.020399 -120.494183 315 4719ft 224kts
24-Sep-18 09:38 35.062491 -120.547000 314 3985ft 204kts
24-Sep-18 09:39 35.091611 -120.583867 314 3998ft 161kts
24-Sep-18 09:40 35.122516 -120.623238 315 3997ft 165kts
24-Sep-18 09:41 35.160442 -120.671534 315 3992ft 171kts
24-Sep-18 09:42 35.187868 -120.706501 315 3991ft 171kts
24-Sep-18 09:43 35.189292 -120.764534 212 3978ft 170kts
24-Sep-18 09:44 35.153642 -120.759036 145 3997ft 165kts
24-Sep-18 09:45 35.117009 -120.724988 127 3981ft 165kts
24-Sep-18 09:46 35.082033 -120.675851 132 3992ft 165kts
24-Sep-18 09:47 35.055289 -120.642234 133 3993ft 165kts
24-Sep-18 09:48 35.023945 -120.603986 134 3404ft 148kts
24-Sep-18 09:49 34.995505 -120.569577 134 2680ft 144kts
24-Sep-18 09:50 34.966871 -120.535029 135 1896ft 139kts
24-Sep-18 09:51 34.941626 -120.504588 135 1210ft 124kts
24-Sep-18 09:52 34.917540 -120.475464 134 588ft 109kts
24-Sep-18 09:53 34.900602 -120.455204 134 265ft 34kts
24-Sep-18 09:54 34.897935 -120.453613 177 265ft 0kts
24-Sep-18 09:55 34.894291 -120.453665 180 265ft 18kts
24-Sep-18 09:56 34.892461 -120.455402 179 264ft 0kts
24-Sep-18 09:57 34.892461 -120.455402 179 264ft 0kts

Navigation Log

Ident Type
Flight plan parsing failed, navigation log unavailable